Latest Weather Observations for Khancoban

IDN60801

Issued at 11:05 pm EST Thursday 31 July 2014 (issued every 30 minutes, with the page automatically refreshed every 10 minutes)

About weather observations | Map of weather stations | Latest weather observations for NSW | Other Formats
Station Details ID: 072162 Name: KHANCOBAN AWS Lat: -36.23 Lon: 148.14 Height: 339.3 m
Data from the previous 72 hours. | See also: Recent months at Khancoban
Date/Time
EST
Temp
°C
App
Temp
°C
Dew
Point
Rel
Hum
%
Delta-T
°C
Wind Press
QNH
hPa
Press
MSL
hPa
Rain
since 9 am
mm
Dir
 
Spd
km/h
Gust
km/h
Spd
kts
Gust
kts
31/11:01pm 15.8 7.7 0.0 34 6.9 N 32 57 17 31 1001.2 - 0.0
31/11:00pm 15.7 8.1 0.3 35 6.8 N 30 46 16 25 1001.4 1002.0 0.0
31/10:57pm 15.7 8.4 -0.1 34 6.9 N 28 46 15 25 1001.4 - 0.0
31/10:30pm 16.2 8.1 -0.5 32 7.2 N 32 46 17 25 1001.5 - 0.0
31/10:02pm 16.4 8.7 -0.3 32 7.2 N 30 48 16 26 1001.4 - 0.0
31/10:00pm 16.8 8.6 -0.9 30 7.6 N 32 48 17 26 1001.2 1001.8 0.0
31/09:30pm 16.8 8.6 -0.9 30 7.6 N 32 50 17 27 1001.7 - 0.0
31/09:28pm 16.8 9.0 -0.9 30 7.6 N 30 50 16 27 1001.7 - 0.0
31/09:00pm 16.6 9.3 -0.1 32 7.3 N 28 43 15 23 1002.3 1003.0 0.0
31/08:33pm 16.8 9.1 -0.4 31 7.5 N 30 48 16 26 1002.5 - 0.0
31/08:30pm 16.7 9.0 -0.1 32 7.3 N 30 44 16 24 1002.8 - 0.0
31/08:08pm 16.8 9.5 0.0 32 7.4 N 28 48 15 26 1003.1 - 0.0
31/08:00pm 16.1 9.3 1.0 36 6.7 N 26 43 14 23 1003.6 1004.2 0.0
31/07:30pm 16.2 8.8 1.9 38 6.5 N 30 54 16 29 1004.0 - 0.0
31/07:06pm 16.2 8.9 2.6 40 6.3 N 30 48 16 26 1004.0 - 0.0
31/07:00pm 16.1 9.2 2.5 40 6.3 N 28 43 15 23 1004.0 1004.7 0.0
31/06:30pm 15.6 8.9 3.7 45 5.6 N 28 41 15 22 1003.9 - 0.0
31/06:00pm 15.6 9.0 4.3 47 5.4 N 28 39 15 21 1003.6 1004.2 0.0
31/05:30pm 15.4 8.1 4.5 48 5.2 N 32 48 17 26 1003.4 - 0.0
31/05:23pm 15.7 8.8 4.7 48 5.3 N 30 48 16 26 1003.4 - 0.0
31/05:00pm 15.6 9.5 4.6 48 5.3 N 26 37 14 20 1003.6 1004.2 0.0
31/04:38pm 16.1 9.6 4.5 46 5.5 N 28 54 15 29 1003.5 - 0.0
31/04:30pm 15.7 8.4 4.7 48 5.3 NNW 32 48 17 26 1004.0 - 0.0
31/04:00pm 16.7 8.4 4.1 43 6.0 N 37 56 20 30 1003.9 1004.5 0.0
31/03:32pm 16.7 8.5 4.7 45 5.8 N 37 57 20 31 1003.9 - 0.0
31/03:30pm 16.7 8.2 5.3 47 5.6 N 39 52 21 28 1004.0 - 0.0
31/03:03pm 16.7 9.7 6.2 50 5.2 N 32 52 17 28 1004.4 - 0.0
31/03:00pm 16.8 10.0 6.9 52 5.0 N 32 43 17 23 1004.5 1005.2 0.0
31/02:30pm 16.8 8.8 5.7 48 5.5 N 37 54 20 29 1004.3 - 0.0
31/02:04pm 16.7 7.3 5.6 48 5.5 N 44 63 24 34 1004.4 - 0.0
31/02:00pm 16.9 7.8 6.1 49 5.4 N 43 57 23 31 1004.8 1005.5 0.0
31/01:46pm 16.9 8.9 5.5 47 5.6 N 37 57 20 31 1004.7 - 0.0
31/01:30pm 17.0 10.1 6.5 50 5.3 N 32 46 17 25 1005.3 - 0.0
31/01:10pm 16.5 9.0 6.1 50 5.2 N 35 57 19 31 1005.5 - 0.0
31/01:00pm 16.6 10.2 7.0 53 4.9 N 30 43 16 23 1006.5 1007.2 0.0
31/12:30pm 16.3 10.2 6.7 53 4.8 N 28 41 15 22 1007.3 - 0.0
31/12:00pm 15.8 9.8 7.0 56 4.4 N 28 43 15 23 1008.6 1009.3 0.0
31/11:30am 15.6 10.3 6.9 56 4.4 NNW 24 35 13 19 1009.8 - 0.0
31/11:00am 15.3 9.5 6.1 54 4.5 NNW 26 37 14 20 1010.6 1011.3 0.0
31/10:30am 14.9 9.0 5.7 54 4.5 N 26 37 14 20 1011.0 - 0.0
31/10:00am 14.7 10.1 5.5 54 4.4 NNW 19 28 10 15 1011.5 1012.3 0.0
31/09:30am 13.8 10.1 6.4 61 3.6 NNW 15 22 8 12 1011.7 - 0.0
31/09:00am 13.5 8.8 6.1 61 3.6 N 20 30 11 16 1011.9 1012.7 1.4
31/08:30am 12.1 10.5 8.8 80 1.7 WNW 7 11 4 6 1012.3 - 1.4
31/08:00am 11.4 9.5 9.1 86 1.2 SSW 9 13 5 7 1012.4 1013.1 1.4
31/07:30am 11.4 10.8 9.1 86 1.2 WNW 2 9 1 5 1012.5 - 1.4
31/07:00am 11.6 10.1 9.2 85 1.2 NNW 7 11 4 6 1012.3 1013.0 1.4
31/06:30am 11.7 11.3 9.6 87 1.1 WNW 2 7 1 4 1012.4 - 1.4
31/06:00am 11.5 9.9 8.9 84 1.3 WNW 7 11 4 6 1012.3 1013.0 1.4
31/05:30am 11.7 9.9 9.4 86 1.2 WNW 9 13 5 7 1012.4 - 1.4
31/05:00am 12.2 10.8 9.6 84 1.3 NW 7 13 4 7 1012.6 1013.3 1.4
31/04:30am 12.1 10.0 9.7 85 1.2 W 11 19 6 10 1012.9 - 1.4
31/04:00am 13.2 9.8 9.1 76 2.1 N 17 24 9 13 1013.2 1013.9 1.4
31/03:30am 12.9 10.1 10.1 83 1.5 NW 15 20 8 11 1013.7 - 1.4
31/03:00am 13.7 11.6 9.7 77 2.1 N 11 19 6 10 1014.0 1014.8 1.4
31/02:30am 12.4 10.8 10.3 87 1.1 W 9 17 5 9 1014.5 - 1.4
31/02:00am 12.5 11.4 10.7 89 1.0 NW 7 17 4 9 1014.7 1015.5 1.4
31/01:30am 13.0 10.8 10.7 86 1.2 NNE 13 20 7 11 1014.8 - 1.4
31/01:00am 13.4 9.7 10.2 81 1.7 N 20 28 11 15 1015.0 1015.8 1.4
31/12:30am 10.9 9.5 10.9 100 0.0 S 9 11 5 6 1015.6 - 1.4
31/12:00am 10.7 9.2 10.7 100 0.0 S 9 13 5 7 1016.0 1016.7 1.4
 
Date/Time
EST
Temp
°C
App
Temp
°C
Dew
Point
Rel
Hum
%
Delta-T
°C
Wind Press
QNH
hPa
Press
MSL
hPa
Rain
since 9 am
mm
Dir
 
Spd
km/h
Gust
km/h
Spd
kts
Gust
kts
30/11:30pm 11.1 11.5 11.1 100 0.0 CALM 0 7 0 4 1016.2 - 1.4
30/11:00pm 11.3 10.0 11.3 100 0.0 SSE 9 13 5 7 1016.2 1016.9 1.4
30/10:30pm 10.9 9.9 10.9 100 0.0 W 7 9 4 5 1016.1 - 1.2
30/10:00pm 10.5 9.4 10.5 100 0.0 S 7 11 4 6 1016.6 1017.4 1.2
30/09:30pm 10.9 9.9 10.9 100 0.0 NNE 7 11 4 6 1016.5 - 1.2
30/09:00pm 10.7 10.2 10.7 100 0.0 WSW 4 7 2 4 1016.8 1017.6 1.2
30/08:30pm 10.8 10.7 10.8 100 0.0 WSW 2 7 1 4 1016.9 - 1.2
30/08:00pm 11.0 10.2 11.0 100 0.0 S 6 9 3 5 1017.1 1017.9 1.2
30/07:30pm 11.0 10.2 11.0 100 0.0 NNW 6 9 3 5 1017.2 - 1.2
30/07:00pm 11.4 11.8 11.4 100 0.0 CALM 0 0 0 0 1017.2 1018.0 1.2
30/06:30pm 11.8 11.0 11.6 99 0.1 N 7 11 4 6 1017.3 - 0.6
30/06:00pm 12.0 11.1 11.4 96 0.3 N 7 15 4 8 1017.0 1017.8 0.4
30/05:30pm 12.9 10.2 10.4 85 1.3 N 15 24 8 13 1016.8 - 0.4
30/05:00pm 12.6 9.1 10.3 86 1.2 N 19 24 10 13 1016.7 1017.5 0.4
30/04:30pm 12.9 9.1 9.9 82 1.6 N 20 28 11 15 1016.4 - 0.0
30/04:00pm 13.1 8.2 9.9 81 1.7 N 26 35 14 19 1015.9 1016.6 0.0
30/03:30pm 13.2 9.1 10.2 82 1.6 N 22 37 12 20 1015.9 - 0.0
30/03:00pm 13.1 9.7 10.5 84 1.4 NNW 19 24 10 13 1015.9 1016.6 0.0
30/02:30pm 13.6 10.0 10.6 82 1.6 N 20 30 11 16 1015.8 - 0.0
30/02:00pm 13.1 9.6 10.8 86 1.2 N 20 35 11 19 1015.8 1016.5 0.0
30/01:30pm 13.3 8.6 10.8 85 1.3 N 26 35 14 19 1016.0 - 0.0
30/01:00pm 13.1 9.7 11.2 88 1.0 NNW 20 32 11 17 1016.5 1017.3 0.0
30/12:30pm 13.3 9.6 11.5 89 1.0 NNW 22 33 12 18 1016.8 - 0.0
30/12:00pm 13.2 9.3 10.7 85 1.3 NNW 22 37 12 20 1017.0 1017.8 0.0
30/11:30am 13.1 9.7 11.2 88 1.0 NNW 20 26 11 14 1017.2 - 0.0
30/11:00am 13.1 9.7 11.3 89 1.0 NW 20 30 11 16 1017.5 1018.3 0.0
30/10:30am 13.0 10.3 11.6 91 0.8 NW 17 24 9 13 1017.4 - 0.0
30/10:00am 12.6 8.6 11.8 95 0.4 NNW 24 35 13 19 1017.3 1018.1 0.0
30/09:30am 12.6 9.5 11.5 93 0.6 N 19 30 10 16 1016.9 - 0.0
30/09:00am 12.4 9.5 11.0 91 0.7 NNW 17 26 9 14 1017.0 1017.8 0.2
30/08:30am 12.2 9.3 11.1 93 0.6 N 17 24 9 13 1016.8 - 0.2
30/08:00am 12.1 9.2 11.0 93 0.6 NNW 17 22 9 12 1016.6 1017.4 0.2
30/07:30am 11.9 10.2 11.1 95 0.4 NNW 11 17 6 9 1016.4 - 0.2
30/07:00am 12.0 10.6 10.9 93 0.6 N 9 17 5 9 1016.4 1017.2 0.2
30/06:30am 12.0 10.5 10.7 92 0.7 N 9 17 5 9 1016.3 - 0.2
30/06:00am 11.8 10.0 10.7 93 0.6 NW 11 13 6 7 1016.0 1016.7 0.2
30/05:30am 12.3 9.2 10.2 87 1.1 N 17 22 9 12 1015.5 - 0.2
30/05:00am 12.5 9.7 9.9 84 1.4 NNW 15 22 8 12 1015.5 1016.2 0.2
30/04:30am 12.4 10.0 10.0 85 1.3 N 13 17 7 9 1015.6 - 0.2
30/04:00am 12.3 9.9 10.2 87 1.1 NNE 13 20 7 11 1015.4 1016.1 0.2
30/03:30am 11.9 9.6 10.6 92 0.7 N 13 17 7 9 1015.6 - 0.2
30/03:00am 12.8 11.0 9.4 80 1.8 NNE 9 11 5 6 1015.8 1016.5 0.0
30/02:30am 12.8 10.5 8.9 77 2.0 NNW 11 30 6 16 1015.9 - 0.0
30/02:00am 12.6 11.3 9.2 80 1.7 NE 6 15 3 8 1015.8 1016.5 0.0
30/01:30am 12.1 11.2 9.3 83 1.4 WNW 4 11 2 6 1016.2 - 0.0
30/01:00am 12.4 10.9 8.3 76 2.1 SSE 6 9 3 5 1015.9 1016.6 0.0
30/12:30am 13.1 10.4 7.5 69 2.8 NNW 11 15 6 8 1015.8 - 0.0
30/12:00am 12.9 11.8 6.7 66 3.0 W 2 9 1 5 1016.1 1016.8 0.0
 
Date/Time
EST
Temp
°C
App
Temp
°C
Dew
Point
Rel
Hum
%
Delta-T
°C
Wind Press
QNH
hPa
Press
MSL
hPa
Rain
since 9 am
mm
Dir
 
Spd
km/h
Gust
km/h
Spd
kts
Gust
kts
29/11:30pm 13.5 9.9 6.6 63 3.4 N 15 22 8 12 1015.9 - 0.0
29/11:00pm 13.6 9.1 6.0 60 3.7 N 19 24 10 13 1016.0 1016.7 0.0
29/10:30pm 13.5 9.2 5.2 57 3.9 N 17 26 9 14 1016.3 - 0.0
29/10:00pm 13.5 8.5 4.6 55 4.2 N 20 32 11 17 1015.9 1016.6 0.0
29/09:30pm 13.9 9.4 4.2 52 4.5 N 17 26 9 14 1016.0 - 0.0
29/09:00pm 13.5 8.7 4.9 56 4.1 N 19 24 10 13 1016.0 1016.7 0.0
29/08:30pm 13.3 9.3 4.7 56 4.0 NNE 15 22 8 12 1016.1 - 0.0
29/08:00pm 13.3 9.7 5.0 57 3.9 N 13 19 7 10 1016.5 1017.3 0.0
29/07:30pm 13.7 8.7 4.8 55 4.2 NNE 20 32 11 17 1016.3 - 0.0
29/07:00pm 13.6 8.9 5.3 57 4.0 N 19 30 10 16 1016.4 1017.2 0.0
29/06:30pm 13.6 8.7 5.3 57 4.0 N 20 33 11 18 1016.0 - 0.0
29/06:00pm 13.6 9.3 5.3 57 4.0 N 17 33 9 18 1016.0 1016.7 0.0
29/05:30pm 13.2 8.6 5.4 59 3.7 N 19 28 10 15 1015.7 - 0.0
29/05:00pm 13.1 8.5 5.5 60 3.6 N 19 26 10 14 1015.3 1016.0 0.0
29/04:30pm 13.2 8.5 5.1 58 3.8 N 19 30 10 16 1015.5 - 0.0
29/04:00pm 13.3 8.1 5.5 59 3.7 NNW 22 35 12 19 1015.2 1015.9 0.0
29/03:30pm 14.7 9.2 5.8 55 4.3 NNW 24 35 13 19 1014.8 - 0.0
29/03:00pm 14.9 9.4 5.7 54 4.5 NW 24 32 13 17 1014.8 1015.6 0.0
29/02:43pm 14.8 8.3 4.8 51 4.8 NW 28 46 15 25 1014.8 - 0.0
29/02:30pm 14.9 8.9 5.1 52 4.7 NW 26 35 14 19 1014.8 - 0.0
29/02:00pm 14.9 8.9 5.4 53 4.6 NW 26 39 14 21 1014.9 1015.7 0.0
29/01:30pm 14.6 10.0 6.7 59 3.9 NW 20 28 11 15 1015.5 - 0.0
29/01:00pm 15.2 10.9 5.1 51 4.8 NNW 17 20 9 11 1015.6 1016.3 0.0
29/12:30pm 15.1 10.6 6.1 55 4.4 N 19 30 10 16 1014.7 - 0.0
29/12:00pm 14.1 9.6 6.0 58 3.9 N 19 24 10 13 1016.0 1016.7 0.0
29/11:30am 11.5 9.3 6.0 69 2.6 SSE 7 11 4 6 1017.5 - 0.0
29/11:00am 10.3 9.2 6.8 79 1.7 WNW 2 7 1 4 1018.0 1018.8 0.0
29/10:30am 9.9 7.9 6.1 77 1.8 E 6 9 3 5 1017.7 - 0.0
29/10:00am 7.5 5.6 7.5 100 0.0 WSW 7 11 4 6 1018.0 1018.8 0.0
29/09:30am 8.1 6.9 6.6 90 0.7 ENE 2 7 1 4 1018.0 - 0.0
29/09:00am 6.6 5.4 6.6 100 0.0 W 2 7 1 4 1018.1 1018.9 0.0
29/08:30am 6.0 3.9 6.0 100 0.0 ENE 6 9 3 5 1017.5 - 0.0
29/08:00am 4.7 3.5 4.7 100 0.0 CALM 0 0 0 0 1017.4 1018.2 0.0
29/07:30am 4.4 3.2 4.4 100 0.0 CALM 0 0 0 0 1017.4 - 0.0
29/07:00am 4.7 3.5 4.7 100 0.0 CALM 0 0 0 0 1017.4 1018.2 0.0
29/06:30am 5.3 4.2 5.3 100 0.0 CALM 0 0 0 0 1017.3 - 0.0
29/06:00am 5.7 4.7 5.7 100 0.0 CALM 0 0 0 0 1017.0 1017.8 0.0
29/05:30am 5.9 5.0 5.9 100 0.0 CALM 0 0 0 0 1016.9 - 0.0
29/05:00am 6.0 5.1 6.0 100 0.0 CALM 0 0 0 0 1016.8 1017.6 0.0
29/04:30am 6.0 4.3 6.0 100 0.0 N 4 7 2 4 1016.9 - 0.0
29/04:00am 6.3 4.3 6.3 100 0.0 SW 6 11 3 6 1017.1 1017.9 0.0
29/03:30am 6.6 5.8 6.6 100 0.0 CALM 0 0 0 0 1016.9 - 0.0
29/03:00am 6.3 5.5 6.3 100 0.0 CALM 0 4 0 2 1017.1 1017.9 0.0
29/02:30am 6.5 4.6 6.5 100 0.0 NNE 6 7 3 4 1017.4 - 0.0
29/02:00am 5.8 3.1 5.8 100 0.0 SSW 9 11 5 6 1017.5 1018.3 0.0
29/01:30am 7.0 5.9 7.0 100 0.0 NNE 2 9 1 5 1017.6 - 0.0
29/01:00am 6.8 5.7 6.8 100 0.0 SW 2 6 1 3 1017.6 1018.4 0.0
29/12:30am 6.9 5.8 6.9 100 0.0 ENE 2 7 1 4 1017.8 - 0.0
29/12:00am 7.3 5.9 7.3 100 0.0 NNW 4 7 2 4 1018.5 1019.2 0.0
 
Date/Time
EST
Temp
°C
App
Temp
°C
Dew
Point
Rel
Hum
%
Delta-T
°C
Wind Press
QNH
hPa
Press
MSL
hPa
Rain
since 9 am
mm
Dir
 
Spd
km/h
Gust
km/h
Spd
kts
Gust
kts
28/11:30pm 7.9 7.4 7.9 100 0.0 CALM 0 0 0 0 1018.5 - 0.0

Other Formats:

Comma delimited format used in spreadsheet applications
http://www.bom.gov.au/fwo/IDN60801/IDN60801.94919.axf

JavaScript Object Notation format (JSON) in row-major order
http://www.bom.gov.au/fwo/IDN60801/IDN60801.94919.json